Time;durP1;ratioP1;P1;durP2;ratioP2;P2;SDS_P1;SDS_P2;PMS_P1;PMS_P2;Temp;Humidity;BMP_temperature;BMP_pressure;BME280_temperature;BME280_humidity;BME280_pressure;Samples;Min_cycle;Max_cycle;Signal;HPM_P1;HPM_P2
2023/12/07 00:00:23;;;;;;;9.40;6.10;;;4.70;65.40;6.90;101741.00;;;;5049758;28;20200;-76
2023/12/07 00:02:50;;;;;;;11.93;5.93;;;4.70;65.50;6.90;101746.00;;;;5050197;28;20198;-77
2023/12/07 00:05:17;;;;;;;10.38;5.90;;;4.70;65.50;6.90;101742.00;;;;5048011;28;20207;-77
2023/12/07 00:07:44;;;;;;;7.43;6.00;;;4.80;65.50;6.90;101745.00;;;;5050102;28;20199;-77
2023/12/07 00:10:11;;;;;;;8.15;6.20;;;4.80;65.50;6.90;101741.00;;;;5049600;28;20200;-76
2023/12/07 00:12:39;;;;;;;10.23;6.78;;;4.80;65.50;6.90;101744.00;;;;5050499;28;20196;-76
2023/12/07 00:15:08;;;;;;;9.15;6.18;;;4.80;65.50;6.90;101745.00;;;;5047190;28;20199;-77
2023/12/07 00:17:35;;;;;;;7.80;5.97;;;4.80;65.50;6.90;101734.00;;;;5046406;28;20573;-76
2023/12/07 00:20:03;;;;;;;7.93;5.68;;;4.80;65.40;7.00;101735.00;;;;5049784;28;20203;-77
2023/12/07 00:22:30;;;;;;;6.55;5.05;;;4.80;65.50;7.00;101734.00;;;;5050798;28;20208;-76
2023/12/07 00:24:57;;;;;;;10.45;5.45;;;4.80;65.50;7.00;101740.00;;;;5033108;28;20210;-76
2023/12/07 00:27:24;;;;;;;7.90;5.35;;;4.80;65.50;7.00;101733.00;;;;5048817;28;20662;-77
2023/12/07 00:29:52;;;;;;;6.35;4.82;;;4.80;65.50;7.00;101735.00;;;;5049079;28;20200;-77
2023/12/07 00:32:19;;;;;;;9.50;6.20;;;4.80;65.50;7.00;101730.00;;;;5049355;28;20592;-77
2023/12/07 00:34:46;;;;;;;6.55;5.38;;;4.90;65.50;7.00;101718.00;;;;5049309;28;20199;-77
2023/12/07 00:37:13;;;;;;;7.18;5.28;;;4.90;65.50;7.00;101729.00;;;;5049573;28;20728;-77
2023/12/07 00:39:42;;;;;;;8.57;6.25;;;4.90;65.50;7.00;101716.00;;;;5039054;28;20195;-77
2023/12/07 00:42:09;;;;;;;7.55;5.68;;;4.90;65.40;7.00;101713.00;;;;5049949;28;20192;-76
2023/12/07 00:44:40;;;;;;;7.20;5.88;;;4.80;65.20;7.00;101716.00;;;;5049382;28;20191;-77
2023/12/07 00:47:09;;;;;;;9.13;6.28;;;4.80;65.20;7.00;101719.00;;;;5045799;28;20232;-77
2023/12/07 00:49:40;;;;;;;6.75;5.43;;;4.90;65.20;7.00;101726.00;;;;5029326;28;20235;-77
2023/12/07 00:52:07;;;;;;;9.38;5.88;;;4.80;65.10;7.00;101716.00;;;;5043245;28;20697;-77
2023/12/07 00:54:34;;;;;;;6.78;4.88;;;4.80;65.20;7.00;101728.00;;;;5047730;28;20191;-77
2023/12/07 00:57:01;;;;;;;6.55;5.00;;;4.80;65.20;6.90;101727.00;;;;5049439;28;20206;-77
2023/12/07 00:59:33;;;;;;;6.53;4.82;;;4.80;65.20;6.90;101718.00;;;;5048942;28;20192;-76
2023/12/07 01:02:01;;;;;;;8.07;4.97;;;4.80;65.30;6.90;101721.00;;;;5046184;28;20211;-76
2023/12/07 01:04:29;;;;;;;6.80;4.90;;;4.80;65.30;6.90;101722.00;;;;5049183;28;20207;-77
2023/12/07 01:06:56;;;;;;;8.50;5.63;;;4.80;65.40;6.90;101723.00;;;;5029637;28;20667;-76
2023/12/07 01:09:23;;;;;;;6.38;5.13;;;4.80;65.30;6.90;101713.00;;;;5040792;28;20207;-77
2023/12/07 01:11:51;;;;;;;6.53;5.35;;;4.80;65.30;6.90;101724.00;;;;5046361;28;20232;-76
2023/12/07 01:14:19;;;;;;;8.88;5.35;;;4.80;65.30;6.90;101732.00;;;;5061447;28;20206;-77
2023/12/07 01:16:46;;;;;;;7.13;5.55;;;4.70;65.20;6.90;101732.00;;;;5050019;28;20198;-77
2023/12/07 01:19:14;;;;;;;7.43;4.93;;;4.70;65.30;6.90;101724.00;;;;5048078;28;20286;-77
2023/12/07 01:21:42;;;;;;;6.47;5.03;;;4.70;65.30;6.80;101729.00;;;;5048007;28;20191;-76
2023/12/07 01:24:09;;;;;;;7.15;4.97;;;4.70;65.40;6.80;101726.00;;;;5048816;28;20596;-77
2023/12/07 01:26:36;;;;;;;8.57;5.40;;;4.70;65.40;6.80;101727.00;;;;5047826;28;20196;-76
2023/12/07 01:29:03;;;;;;;7.25;5.30;;;4.70;65.40;6.80;101732.00;;;;5047243;28;20212;-77
2023/12/07 01:31:30;;;;;;;5.65;4.88;;;4.70;65.50;6.90;101735.00;;;;5053570;28;20223;-77
2023/12/07 01:33:57;;;;;;;6.68;4.93;;;4.70;65.50;6.90;101733.00;;;;5047752;28;20195;-76
2023/12/07 01:36:24;;;;;;;7.05;4.88;;;4.70;65.50;6.90;101729.00;;;;5047206;28;20291;-77
2023/12/07 01:38:53;;;;;;;6.60;5.13;;;4.70;65.50;6.90;101736.00;;;;5048131;28;20211;-77
2023/12/07 01:41:20;;;;;;;7.80;6.32;;;4.70;65.50;6.90;101742.00;;;;5048136;28;20196;-76
2023/12/07 01:43:47;;;;;;;6.72;5.15;;;4.70;65.40;6.90;101736.00;;;;5047450;28;20192;-76
2023/12/07 01:46:16;;;;;;;8.13;5.50;;;4.70;65.50;6.90;101730.00;;;;5042753;28;20542;-77
2023/12/07 01:48:43;;;;;;;7.20;5.00;;;4.70;65.40;6.90;101738.00;;;;5051648;28;20227;-77
2023/12/07 01:51:12;;;;;;;6.85;5.03;;;4.70;65.40;6.80;101733.00;;;;5048102;28;20215;-77
2023/12/07 01:53:40;;;;;;;6.80;5.38;;;4.70;65.40;6.80;101748.00;;;;5047939;28;20195;-76
2023/12/07 01:56:10;;;;;;;6.55;5.28;;;4.70;65.40;6.80;101741.00;;;;5045481;28;20204;-76
2023/12/07 01:58:38;;;;;;;7.00;5.00;;;4.70;65.30;6.80;101747.00;;;;5046380;28;20203;-76
2023/12/07 02:01:05;;;;;;;7.68;5.40;;;4.70;65.30;6.80;101747.00;;;;5048179;28;20187;-76
2023/12/07 02:03:33;;;;;;;9.68;5.18;;;4.70;65.30;6.80;101754.00;;;;5046573;28;20626;-76
2023/12/07 02:06:02;;;;;;;7.25;5.43;;;4.70;65.30;6.80;101746.00;;;;5047284;28;20199;-76
2023/12/07 02:08:29;;;;;;;6.85;5.03;;;4.70;65.30;6.80;101747.00;;;;5046986;28;20211;-76
2023/12/07 02:10:56;;;;;;;7.65;5.75;;;4.70;65.40;6.80;101743.00;;;;5047169;28;20566;-76
2023/12/07 02:13:24;;;;;;;7.32;5.22;;;4.70;65.40;6.80;101743.00;;;;5047134;28;20199;-76
2023/12/07 02:15:54;;;;;;;9.32;5.97;;;4.70;65.40;6.80;101750.00;;;;5046599;28;20211;-76
2023/12/07 02:18:33;;;;;;;7.10;4.95;;;4.70;65.50;6.80;101738.00;;;;5045666;28;20203;-76
2023/12/07 02:21:12;;;;;;;6.28;5.15;;;4.70;65.40;6.80;101744.00;;;;5048465;28;20209;-76
2023/12/07 02:23:43;;;;;;;7.13;5.28;;;4.70;65.40;6.80;101735.00;;;;5056826;28;20198;-76
2023/12/07 02:26:14;;;;;;;6.78;5.47;;;4.70;65.50;6.80;101741.00;;;;5048084;28;20199;-76
2023/12/07 02:28:42;;;;;;;7.78;5.10;;;4.70;65.40;6.80;101736.00;;;;5046508;28;20203;-76
2023/12/07 02:31:09;;;;;;;6.75;5.00;;;4.70;65.40;6.90;101745.00;;;;5047042;28;20219;-76
2023/12/07 02:33:36;;;;;;;7.65;5.53;;;4.70;65.40;6.90;101743.00;;;;5047664;28;20196;-76
2023/12/07 02:36:03;;;;;;;8.52;5.57;;;4.70;65.50;6.80;101737.00;;;;5046572;28;20578;-76
2023/12/07 02:38:31;;;;;;;7.53;5.22;;;4.70;65.40;6.80;101746.00;;;;5046612;28;20187;-76
2023/12/07 02:41:00;;;;;;;8.60;5.38;;;4.70;65.40;6.80;101743.00;;;;5047737;28;20195;-76
2023/12/07 02:43:28;;;;;;;8.40;5.32;;;4.70;65.40;6.90;101740.00;;;;5046139;28;20706;-76
2023/12/07 02:45:56;;;;;;;6.88;5.20;;;4.70;65.50;6.90;101739.00;;;;5047868;28;20198;-76
2023/12/07 02:48:23;;;;;;;7.93;5.28;;;4.70;65.50;6.90;101735.00;;;;5047868;28;20557;-76
2023/12/07 02:50:50;;;;;;;10.13;6.03;;;4.70;65.40;6.90;101731.00;;;;5046488;28;20192;-76
2023/12/07 02:53:18;;;;;;;9.73;6.07;;;4.70;65.50;6.90;101728.00;;;;5045630;28;20199;-76
2023/12/07 02:55:45;;;;;;;8.55;5.63;;;4.70;65.40;6.90;101726.00;;;;5047258;28;20203;-76
2023/12/07 02:58:12;;;;;;;11.27;5.57;;;4.70;65.50;6.90;101723.00;;;;5046502;28;20210;-76
2023/12/07 03:00:39;;;;;;;8.88;5.43;;;4.70;65.50;6.90;101727.00;;;;5036826;28;20207;-76
2023/12/07 03:03:07;;;;;;;8.88;5.93;;;4.70;65.50;6.90;101710.00;;;;5048551;28;20207;-76
2023/12/07 03:05:34;;;;;;;12.43;5.47;;;4.70;65.60;6.90;101733.00;;;;5046528;28;20202;-76
2023/12/07 03:08:01;;;;;;;9.20;6.03;;;4.70;65.60;6.90;101737.00;;;;5046967;28;20199;-76
2023/12/07 03:10:28;;;;;;;9.88;5.90;;;4.70;65.60;6.90;101740.00;;;;5047900;28;20676;-76
2023/12/07 03:12:55;;;;;;;8.07;5.28;;;4.70;65.70;6.90;101733.00;;;;5056587;28;20245;-76
2023/12/07 03:15:22;;;;;;;7.07;4.65;;;4.70;65.70;6.90;101729.00;;;;5052645;28;20584;-77
2023/12/07 03:17:51;;;;;;;9.25;5.97;;;4.70;65.80;6.90;101728.00;;;;5044722;28;20684;-76
2023/12/07 03:20:19;;;;;;;13.75;5.88;;;4.70;65.80;6.90;101734.00;;;;5046348;28;20206;-76
2023/12/07 03:22:46;;;;;;;7.90;5.45;;;4.70;65.80;6.90;101732.00;;;;5046508;28;20255;-76
2023/12/07 03:25:13;;;;;;;9.18;6.65;;;4.70;65.80;6.90;101742.00;;;;5046744;28;20200;-76
2023/12/07 03:27:40;;;;;;;8.98;5.57;;;4.70;65.70;6.90;101751.00;;;;5047267;28;20195;-76
2023/12/07 03:30:08;;;;;;;6.82;5.20;;;4.70;65.70;6.90;101744.00;;;;5047370;28;20195;-76
2023/12/07 03:32:35;;;;;;;9.60;6.05;;;4.70;65.80;6.90;101746.00;;;;5047648;28;20215;-76
2023/12/07 03:35:02;;;;;;;7.90;5.80;;;4.80;65.80;7.00;101744.00;;;;5046651;28;20208;-76
2023/12/07 03:37:30;;;;;;;7.90;5.13;;;4.80;65.80;6.90;101750.00;;;;5040706;28;20203;-76
2023/12/07 03:39:57;;;;;;;8.48;5.72;;;4.80;65.80;7.00;101753.00;;;;5051029;28;20200;-76
2023/12/07 03:42:24;;;;;;;9.88;6.63;;;4.80;65.80;7.00;101753.00;;;;5050893;28;20215;-76
2023/12/07 03:44:51;;;;;;;8.70;5.90;;;4.80;65.90;7.00;101755.00;;;;5050222;28;20518;-76
2023/12/07 03:47:18;;;;;;;10.65;5.97;;;4.80;65.90;7.00;101756.00;;;;5048938;28;20231;-76
2023/12/07 03:49:45;;;;;;;8.57;6.28;;;4.80;66.00;7.10;101756.00;;;;5051590;28;20245;-76
2023/12/07 03:52:12;;;;;;;20.73;5.95;;;4.80;65.90;7.10;101757.00;;;;5049963;28;20262;-76
2023/12/07 03:54:41;;;;;;;11.95;6.72;;;4.90;66.00;7.10;101760.00;;;;5050406;28;20187;-76
2023/12/07 03:57:08;;;;;;;7.50;5.85;;;4.90;66.10;7.10;101758.00;;;;5049750;28;20199;-76
2023/12/07 03:59:37;;;;;;;8.25;5.95;;;4.90;66.10;7.10;101753.00;;;;5050249;28;20207;-76
2023/12/07 04:02:04;;;;;;;8.70;6.65;;;4.90;66.10;7.10;101759.00;;;;5050444;28;20200;-76
2023/12/07 04:04:32;;;;;;;8.98;6.50;;;4.90;66.10;7.20;101759.00;;;;5062311;28;20217;-76
2023/12/07 04:06:59;;;;;;;12.23;5.93;;;5.00;66.20;7.20;101757.00;;;;5049242;28;20553;-76
2023/12/07 04:09:26;;;;;;;10.50;6.10;;;5.00;66.40;7.20;101760.00;;;;5050175;28;20195;-76
2023/12/07 04:11:54;;;;;;;11.90;6.38;;;5.00;66.20;7.20;101757.00;;;;5049626;28;20227;-76
2023/12/07 04:14:21;;;;;;;10.85;5.97;;;5.00;66.20;7.20;101762.00;;;;5050384;28;20192;-76
2023/12/07 04:16:48;;;;;;;10.40;5.60;;;5.00;66.10;7.20;101756.00;;;;5050514;28;20215;-76
2023/12/07 04:19:15;;;;;;;7.93;5.45;;;5.00;66.20;7.20;101754.00;;;;5047108;28;20196;-76
2023/12/07 04:21:42;;;;;;;7.57;5.18;;;5.10;66.20;7.30;101758.00;;;;5052941;28;20211;-76
2023/12/07 04:24:09;;;;;;;9.93;6.18;;;5.10;66.20;7.30;101763.00;;;;5049495;28;20199;-76
2023/12/07 04:26:36;;;;;;;19.17;5.82;;;5.10;66.20;7.30;101757.00;;;;5049691;28;20196;-76
2023/12/07 04:29:04;;;;;;;8.77;5.55;;;5.10;66.20;7.30;101756.00;;;;5049311;28;20204;-76
2023/12/07 04:31:32;;;;;;;7.35;5.53;;;5.10;66.10;7.30;101755.00;;;;5049848;28;20195;-76
2023/12/07 04:33:59;;;;;;;10.75;5.68;;;5.10;66.20;7.30;101751.00;;;;5050918;28;20571;-76
2023/12/07 04:36:26;;;;;;;8.05;5.75;;;5.10;66.10;7.30;101744.00;;;;5050036;28;21131;-76
2023/12/07 04:38:53;;;;;;;9.35;5.30;;;5.10;66.20;7.30;101748.00;;;;5051295;28;20210;-76
2023/12/07 04:41:20;;;;;;;11.20;6.38;;;5.10;66.20;7.40;101749.00;;;;5047609;28;20196;-76
2023/12/07 04:43:47;;;;;;;7.20;5.80;;;5.20;66.30;7.40;101748.00;;;;5048717;28;20196;-76
2023/12/07 04:46:15;;;;;;;9.73;5.57;;;5.20;66.30;7.40;101760.00;;;;5050050;28;20195;-76
2023/12/07 04:48:42;;;;;;;10.80;5.55;;;5.20;66.30;7.40;101759.00;;;;5048528;28;20220;-75
2023/12/07 04:51:09;;;;;;;6.53;4.80;;;5.20;66.30;7.40;101761.00;;;;5048148;28;20188;-75
2023/12/07 04:53:36;;;;;;;8.90;4.93;;;5.20;66.40;7.40;101756.00;;;;5049900;28;20226;-76
2023/12/07 04:56:04;;;;;;;10.30;6.13;;;5.20;66.30;7.40;101756.00;;;;5050691;28;20203;-76
2023/12/07 04:58:31;;;;;;;8.82;5.22;;;5.20;66.30;7.50;101751.00;;;;5049625;28;20200;-76
2023/12/07 05:00:59;;;;;;;8.02;5.03;;;5.30;66.30;7.50;101745.00;;;;5047198;28;20588;-76
2023/12/07 05:03:27;;;;;;;6.82;5.32;;;5.30;66.30;7.50;101742.00;;;;5050438;28;20282;-76
2023/12/07 05:05:54;;;;;;;6.22;4.70;;;5.30;66.30;7.50;101743.00;;;;5050251;28;20684;-76
2023/12/07 05:08:21;;;;;;;8.57;5.10;;;5.30;66.30;7.50;101742.00;;;;5048975;28;20576;-76
2023/12/07 05:10:48;;;;;;;6.97;5.00;;;5.30;66.30;7.50;101749.00;;;;5038039;28;20192;-76
2023/12/07 05:13:15;;;;;;;6.45;5.35;;;5.30;66.30;7.50;101745.00;;;;5048416;28;20318;-76
2023/12/07 05:15:42;;;;;;;5.90;4.68;;;5.30;66.30;7.60;101739.00;;;;5048306;28;20196;-76
2023/12/07 05:18:09;;;;;;;10.57;5.97;;;5.30;66.30;7.60;101740.00;;;;5042459;28;20204;-76
2023/12/07 05:20:38;;;;;;;5.45;4.75;;;5.40;66.40;7.60;101742.00;;;;5049737;28;20207;-76
2023/12/07 05:23:05;;;;;;;6.70;5.18;;;5.40;66.40;7.60;101742.00;;;;5047609;28;20195;-76
2023/12/07 05:25:33;;;;;;;8.00;4.57;;;5.40;66.40;7.60;101745.00;;;;5040124;28;20196;-76
2023/12/07 05:28:00;;;;;;;6.78;5.32;;;5.40;66.40;7.60;101759.00;;;;5049448;28;20245;-76
2023/12/07 05:30:27;;;;;;;9.43;5.25;;;5.40;66.40;7.60;101744.00;;;;5052593;28;20199;-76
2023/12/07 05:32:54;;;;;;;9.15;4.88;;;5.50;66.60;7.60;101745.00;;;;5041226;28;20227;-76
2023/12/07 05:35:23;;;;;;;8.65;5.45;;;5.50;66.60;7.70;101749.00;;;;5032670;28;20259;-75
2023/12/07 05:37:51;;;;;;;6.75;5.00;;;5.50;66.50;7.70;101736.00;;;;5043704;28;20200;-76
2023/12/07 05:40:18;;;;;;;8.07;5.45;;;5.50;66.50;7.70;101742.00;;;;5033024;28;20196;-76
2023/12/07 05:42:46;;;;;;;7.45;5.60;;;5.50;66.40;7.70;101742.00;;;;5046949;28;20271;-76
2023/12/07 05:45:14;;;;;;;7.30;5.25;;;5.50;66.40;7.70;101736.00;;;;5051323;28;20200;-76
2023/12/07 05:47:41;;;;;;;6.28;5.13;;;5.50;66.30;7.70;101734.00;;;;5046141;28;20231;-76
2023/12/07 05:50:09;;;;;;;9.55;5.35;;;5.50;66.30;7.70;101734.00;;;;5045668;28;20219;-77
2023/12/07 05:52:36;;;;;;;9.93;5.90;;;5.50;66.30;7.70;101734.00;;;;5041918;28;20227;-77
2023/12/07 05:55:06;;;;;;;10.25;5.68;;;5.50;66.20;7.70;101725.00;;;;5044370;28;20214;-76
2023/12/07 05:57:34;;;;;;;7.05;5.13;;;5.50;66.10;7.70;101738.00;;;;5044540;28;20199;-76
2023/12/07 06:00:01;;;;;;;7.18;5.07;;;5.50;66.10;7.60;101740.00;;;;5048595;28;20191;-76
2023/12/07 06:02:28;;;;;;;8.45;6.18;;;5.50;66.10;7.60;101736.00;;;;5048805;28;20907;-76
2023/12/07 06:04:56;;;;;;;8.80;6.63;;;5.50;66.10;7.60;101743.00;;;;5048475;28;20199;-76
2023/12/07 06:07:22;;;;;;;8.27;6.60;;;5.50;66.20;7.60;101741.00;;;;5047815;28;20223;-76
2023/12/07 06:09:49;;;;;;;7.82;6.00;;;5.50;66.20;7.60;101743.00;;;;5038849;28;20203;-76
2023/12/07 06:12:18;;;;;;;7.25;5.32;;;5.50;66.20;7.60;101756.00;;;;5029244;28;20262;-76
2023/12/07 06:14:45;;;;;;;10.65;5.90;;;5.50;66.10;7.60;101752.00;;;;5047039;28;20200;-76
2023/12/07 06:17:11;;;;;;;7.40;5.90;;;5.50;66.00;7.60;101748.00;;;;5049636;28;20192;-76
2023/12/07 06:19:38;;;;;;;8.98;6.10;;;5.50;66.00;7.60;101761.00;;;;5047810;28;20195;-76
2023/12/07 06:22:06;;;;;;;10.75;5.88;;;5.50;66.00;7.60;101758.00;;;;5046186;28;20191;-76
2023/12/07 06:24:33;;;;;;;8.73;5.35;;;5.40;65.90;7.50;101758.00;;;;5045345;28;20192;-76
2023/12/07 06:27:01;;;;;;;8.27;5.82;;;5.40;65.90;7.60;101767.00;;;;5049451;28;20661;-76
2023/12/07 06:29:30;;;;;;;7.50;5.53;;;5.40;65.90;7.60;101762.00;;;;5046779;28;20667;-76
2023/12/07 06:31:57;;;;;;;9.93;6.38;;;5.40;66.00;7.50;101761.00;;;;5048490;28;20187;-76
2023/12/07 06:34:24;;;;;;;9.82;5.95;;;5.40;66.10;7.60;101758.00;;;;5048981;28;20669;-76
2023/12/07 06:36:50;;;;;;;9.73;6.80;;;5.40;66.10;7.60;101759.00;;;;5046697;28;20199;-76
2023/12/07 06:39:18;;;;;;;14.20;6.65;;;5.40;66.10;7.60;101755.00;;;;5043673;28;20202;-76
2023/12/07 06:41:45;;;;;;;8.23;6.40;;;5.40;66.10;7.60;101761.00;;;;5039361;28;20720;-76
2023/12/07 06:44:12;;;;;;;11.05;5.80;;;5.40;66.00;7.60;101760.00;;;;5040076;28;20209;-77
2023/12/07 06:46:40;;;;;;;13.00;6.55;;;5.40;65.90;7.50;101747.00;;;;5038900;28;20238;-76
2023/12/07 06:49:07;;;;;;;8.68;6.43;;;5.40;65.90;7.50;101751.00;;;;5041603;28;20223;-76
2023/12/07 06:51:34;;;;;;;7.35;5.70;;;5.40;65.90;7.50;101767.00;;;;5048047;28;20195;-77
2023/12/07 06:54:01;;;;;;;11.15;6.30;;;5.40;66.00;7.50;101752.00;;;;5054816;28;20270;-76
2023/12/07 06:56:28;;;;;;;8.73;6.35;;;5.40;66.00;7.50;101753.00;;;;5048055;28;20716;-76
2023/12/07 06:58:55;;;;;;;7.60;5.68;;;5.40;66.00;7.50;101758.00;;;;5040957;28;20192;-76
2023/12/07 07:01:22;;;;;;;8.80;5.70;;;5.40;66.00;7.50;101760.00;;;;5030045;28;20224;-78
2023/12/07 07:03:50;;;;;;;8.18;5.90;;;5.40;66.00;7.50;101754.00;;;;5044087;28;20661;-77
2023/12/07 07:06:17;;;;;;;7.53;5.68;;;5.30;66.00;7.50;101753.00;;;;5049860;28;20609;-76
2023/12/07 07:08:44;;;;;;;8.85;5.78;;;5.40;66.20;7.50;101745.00;;;;5047826;28;20696;-77
2023/12/07 07:11:14;;;;;;;17.35;6.90;;;5.40;66.20;7.50;101746.00;;;;5052231;28;20196;-77
2023/12/07 07:13:43;;;;;;;11.23;6.38;;;5.40;66.30;7.50;101744.00;;;;5049521;28;20593;-76
2023/12/07 07:16:10;;;;;;;9.80;5.88;;;5.40;66.20;7.50;101748.00;;;;5051515;28;20206;-77
2023/12/07 07:18:39;;;;;;;8.73;6.45;;;5.40;66.20;7.40;101747.00;;;;5050660;28;20187;-77
2023/12/07 07:21:08;;;;;;;10.55;5.95;;;5.40;66.20;7.40;101746.00;;;;5049473;28;20195;-76
2023/12/07 07:23:38;;;;;;;7.63;6.07;;;5.40;66.10;7.40;101760.00;;;;5049788;28;20199;-76
2023/12/07 07:26:05;;;;;;;7.55;5.70;;;5.40;66.10;7.40;101754.00;;;;5051683;28;20206;-76
2023/12/07 07:28:33;;;;;;;9.52;6.88;;;5.40;66.10;7.40;101756.00;;;;5041308;28;20573;-76
2023/12/07 07:31:00;;;;;;;9.23;6.13;;;5.30;66.10;7.30;101746.00;;;;5042002;28;20257;-76
2023/12/07 07:33:27;;;;;;;8.82;6.22;;;5.30;66.10;7.30;101752.00;;;;5050946;28;20732;-75
2023/12/07 07:35:54;;;;;;;18.58;7.28;;;5.30;66.10;7.30;101757.00;;;;5048132;28;20208;-76
2023/12/07 07:38:23;;;;;;;10.73;6.50;;;5.30;66.10;7.30;101755.00;;;;5048900;28;20219;-76
2023/12/07 07:40:50;;;;;;;9.70;6.15;;;5.30;66.10;7.30;101762.00;;;;5050170;28;20199;-76
2023/12/07 07:43:17;;;;;;;8.38;5.85;;;5.30;66.10;7.30;101763.00;;;;5048374;28;20200;-75
2023/12/07 07:45:45;;;;;;;10.13;6.05;;;5.30;66.10;7.30;101765.00;;;;5066767;28;20199;-75
2023/12/07 07:48:13;;;;;;;8.77;6.30;;;5.30;66.10;7.30;101762.00;;;;5071754;28;20219;-75
2023/12/07 07:50:40;;;;;;;13.65;7.15;;;5.30;66.20;7.30;101764.00;;;;5071272;28;20269;-75
2023/12/07 07:53:07;;;;;;;8.90;6.60;;;5.30;66.30;7.30;101759.00;;;;5071676;28;20222;-76
2023/12/07 07:55:35;;;;;;;10.60;6.68;;;5.30;66.40;7.30;101772.00;;;;5061993;28;20580;-74
2023/12/07 07:58:02;;;;;;;11.15;6.88;;;5.30;66.40;7.30;101765.00;;;;5046129;28;20207;-75
2023/12/07 08:00:30;;;;;;;9.32;6.35;;;5.20;66.30;7.30;101771.00;;;;5049415;28;20687;-76
2023/12/07 08:02:57;;;;;;;8.65;5.93;;;5.30;66.40;7.30;101771.00;;;;5048250;28;20208;-76
2023/12/07 08:05:24;;;;;;;10.05;6.90;;;5.30;66.50;7.30;101765.00;;;;5048747;28;20195;-76
2023/12/07 08:07:51;;;;;;;8.82;6.60;;;5.30;66.50;7.30;101760.00;;;;5047715;28;20259;-75
2023/12/07 08:10:19;;;;;;;11.75;7.18;;;5.30;66.50;7.30;101763.00;;;;5049220;28;20208;-75
2023/12/07 08:12:47;;;;;;;9.00;6.57;;;5.30;66.50;7.30;101763.00;;;;5045919;28;20726;-76
2023/12/07 08:15:14;;;;;;;9.45;6.35;;;5.30;66.60;7.30;101762.00;;;;5037931;28;20200;-76
2023/12/07 08:17:42;;;;;;;12.13;6.93;;;5.30;66.50;7.30;101743.00;;;;5039718;28;20203;-76
2023/12/07 08:20:11;;;;;;;10.00;6.18;;;5.30;66.60;7.30;101753.00;;;;5034619;28;20203;-76
2023/12/07 08:22:38;;;;;;;11.70;7.13;;;5.30;66.50;7.30;101754.00;;;;5036706;28;20242;-76
2023/12/07 08:25:07;;;;;;;8.93;6.53;;;5.30;66.50;7.30;101753.00;;;;5040605;28;20729;-76
2023/12/07 08:27:34;;;;;;;7.28;4.85;;;5.30;66.60;7.30;101751.00;;;;5041902;28;20199;-76
2023/12/07 08:30:03;;;;;;;6.32;4.70;;;5.30;66.60;7.30;101753.00;;;;5042050;28;20204;-76
2023/12/07 08:32:30;;;;;;;7.25;4.75;;;5.30;66.50;7.30;101755.00;;;;5040037;28;20196;-76
2023/12/07 08:34:58;;;;;;;6.47;4.65;;;5.30;66.50;7.30;101750.00;;;;5042167;28;20600;-76
2023/12/07 08:37:25;;;;;;;8.50;4.65;;;5.30;66.40;7.30;101753.00;;;;5041636;28;20653;-76
2023/12/07 08:39:52;;;;;;;5.47;3.30;;;5.30;66.50;7.30;101760.00;;;;5039480;28;20572;-76
2023/12/07 08:42:19;;;;;;;5.72;4.20;;;5.30;66.40;7.20;101759.00;;;;5042494;28;20553;-76
2023/12/07 08:44:46;;;;;;;5.78;4.13;;;5.30;66.40;7.20;101760.00;;;;5042374;28;20210;-76
2023/12/07 08:47:14;;;;;;;6.72;4.53;;;5.30;66.50;7.20;101754.00;;;;5039546;28;20604;-76
2023/12/07 08:49:42;;;;;;;6.82;4.35;;;5.30;66.50;7.20;101757.00;;;;5047413;28;20220;-75
2023/12/07 08:52:09;;;;;;;6.55;4.30;;;5.30;66.60;7.30;101756.00;;;;5046180;28;20658;-76
2023/12/07 08:54:37;;;;;;;6.55;4.45;;;5.30;66.50;7.30;101752.00;;;;5049293;28;20589;-76
2023/12/07 08:57:04;;;;;;;5.57;3.90;;;5.30;66.60;7.30;101752.00;;;;5049127;28;20277;-75
2023/12/07 08:59:31;;;;;;;6.63;4.47;;;5.30;66.60;7.30;101746.00;;;;5048009;28;20218;-77
2023/12/07 09:01:58;;;;;;;6.63;5.03;;;5.30;66.70;7.40;101746.00;;;;5045240;28;20670;-76
2023/12/07 09:04:28;;;;;;;6.65;4.32;;;5.40;66.80;7.30;101742.00;;;;5045885;28;20283;-76
2023/12/07 09:06:56;;;;;;;6.32;4.53;;;5.40;66.90;7.40;101753.00;;;;5048329;28;20203;-76
2023/12/07 09:09:23;;;;;;;5.43;3.88;;;5.40;66.90;7.40;101748.00;;;;5050269;28;20290;-76
2023/12/07 09:11:50;;;;;;;6.72;4.57;;;5.40;66.90;7.50;101746.00;;;;5047638;28;20258;-76
2023/12/07 09:14:17;;;;;;;7.78;4.35;;;5.40;67.00;7.50;101737.00;;;;5040571;28;20227;-75
2023/12/07 09:16:45;;;;;;;6.10;4.10;;;5.50;67.00;7.50;101746.00;;;;5041399;28;20196;-76
2023/12/07 09:19:13;;;;;;;6.50;4.18;;;5.50;66.90;7.50;101744.00;;;;5049184;28;20204;-76
2023/12/07 09:21:42;;;;;;;5.30;3.53;;;5.50;66.90;7.50;101745.00;;;;5049366;28;20288;-76
2023/12/07 09:24:10;;;;;;;8.98;4.22;;;5.60;67.00;7.60;101751.00;;;;5048233;28;20203;-77
2023/12/07 09:26:37;;;;;;;5.32;3.78;;;5.60;66.80;7.60;101752.00;;;;5048265;28;20582;-76
2023/12/07 09:29:05;;;;;;;7.45;3.90;;;5.60;67.40;7.60;101743.00;;;;5050163;28;20223;-76
2023/12/07 09:31:32;;;;;;;5.13;3.72;;;5.60;66.70;7.60;101750.00;;;;5046048;28;20275;-76
2023/12/07 09:34:00;;;;;;;6.75;4.05;;;5.60;66.70;7.60;101751.00;;;;5048692;28;20655;-76
2023/12/07 09:36:27;;;;;;;6.65;4.60;;;5.60;66.70;7.60;101748.00;;;;5048877;28;20578;-76
2023/12/07 09:38:56;;;;;;;5.75;3.97;;;5.60;66.70;7.60;101754.00;;;;5049292;28;20673;-76
2023/12/07 09:41:24;;;;;;;9.55;3.58;;;5.60;66.70;7.60;101755.00;;;;5046925;28;20200;-76
2023/12/07 09:43:51;;;;;;;6.18;3.70;;;5.60;66.70;7.60;101755.00;;;;5057453;28;20202;-76
2023/12/07 09:46:19;;;;;;;8.82;3.85;;;5.70;66.80;7.60;101758.00;;;;5057859;28;20294;-76
2023/12/07 09:48:50;;;;;;;4.50;3.22;;;5.70;66.70;7.60;101753.00;;;;5047762;28;20658;-76
2023/12/07 09:51:17;;;;;;;5.43;3.67;;;5.70;66.70;7.60;101745.00;;;;5047054;28;20670;-76
2023/12/07 09:53:49;;;;;;;5.13;3.35;;;5.70;66.70;7.60;101747.00;;;;5027909;28;20227;-76
2023/12/07 09:56:18;;;;;;;5.93;3.45;;;5.70;66.60;7.60;101744.00;;;;5044899;28;20211;-76
2023/12/07 09:58:44;;;;;;;4.90;2.95;;;5.60;66.50;7.60;101729.00;;;;5031969;28;20196;-77
2023/12/07 10:01:13;;;;;;;5.10;3.50;;;5.70;66.60;7.60;101725.00;;;;5044332;28;20674;-76
2023/12/07 10:03:41;;;;;;;6.35;2.90;;;5.70;66.60;7.60;101723.00;;;;5027590;28;20200;-76
2023/12/07 10:06:08;;;;;;;6.07;3.67;;;5.70;66.60;7.60;101721.00;;;;5042135;28;20606;-76
2023/12/07 10:08:37;;;;;;;4.90;3.33;;;5.70;66.70;7.60;101712.00;;;;5044710;28;20199;-76
2023/12/07 10:11:07;;;;;;;4.63;2.97;;;5.60;66.70;7.60;101700.00;;;;5035436;28;20216;-76
2023/12/07 10:13:37;;;;;;;4.10;2.80;;;5.60;66.70;7.60;101710.00;;;;5038372;28;20220;-76
2023/12/07 10:16:14;;;;;;;5.22;3.33;;;5.70;67.50;7.60;101711.00;;;;5047390;28;20756;-76
2023/12/07 10:18:42;;;;;;;5.07;3.20;;;5.70;66.80;7.70;101698.00;;;;5043284;28;20191;-75
2023/12/07 10:21:10;;;;;;;4.18;2.45;;;5.70;66.80;7.60;101705.00;;;;5047278;28;20192;-76
2023/12/07 10:23:37;;;;;;;4.18;2.53;;;5.70;66.80;7.60;101693.00;;;;5028997;28;20408;-76
2023/12/07 10:26:07;;;;;;;4.78;2.97;;;5.70;66.80;7.60;101688.00;;;;5032504;28;20204;-76
2023/12/07 10:28:37;;;;;;;5.78;2.53;;;5.70;66.80;7.60;101686.00;;;;5044014;28;20192;-76
2023/12/07 10:31:09;;;;;;;5.70;3.65;;;5.70;66.80;7.60;101687.00;;;;5043468;28;20200;-76
2023/12/07 10:33:36;;;;;;;5.15;3.05;;;5.70;66.80;7.70;101683.00;;;;5040488;28;20219;-76
2023/12/07 10:36:06;;;;;;;5.88;3.83;;;5.70;66.80;7.70;101674.00;;;;5048922;28;20557;-76
2023/12/07 10:38:33;;;;;;;4.50;3.00;;;5.70;66.80;7.70;101673.00;;;;5046799;28;20192;-76
2023/12/07 10:41:06;;;;;;;5.72;3.22;;;5.70;66.80;7.60;101667.00;;;;5047019;28;20196;-77
2023/12/07 10:43:38;;;;;;;5.78;3.63;;;5.70;66.80;7.70;101670.00;;;;5044268;28;20253;-77
2023/12/07 10:46:07;;;;;;;5.97;3.50;;;5.70;66.80;7.70;101657.00;;;;5046395;28;20212;-77
2023/12/07 10:48:36;;;;;;;6.65;4.00;;;5.70;67.00;7.80;101657.00;;;;5044184;28;20196;-76
2023/12/07 10:51:10;;;;;;;7.35;4.40;;;5.80;67.10;7.70;101662.00;;;;5042392;28;20224;-76
2023/12/07 10:53:43;;;;;;;9.25;4.75;;;5.80;67.00;7.80;101659.00;;;;5035799;28;20211;-76
2023/12/07 10:56:14;;;;;;;8.18;5.03;;;5.80;67.70;7.80;101662.00;;;;5040102;28;20282;-76
2023/12/07 10:58:44;;;;;;;8.68;4.90;;;5.80;66.80;7.80;101653.00;;;;5037743;28;20188;-76
2023/12/07 11:01:14;;;;;;;8.88;5.20;;;5.90;66.90;7.80;101646.00;;;;5036909;28;20200;-76